Hovedside
METAR-TAF:

METAR-TAF

Lufthavner :

Sunan internasjonale lufthavn

Pyongyang, Nord-Korea

breddegrad: 39-02N, lengdegrad: 125-47E, høyde over havet: 36 m

METAR: fraværende

Tid: 01:49 (17:19 UTC)

Varsel

Denne rapporten ble laget for 14 timer og 19 minutter siden, klokken 03:00 UTC
Varsel gyldig fra 23. klokken 06 UTC til 24. klokken 06 UTC
Vind 8 kt fra Vest-sørvest
Sikt: 6000 m

TAF: ZKPY 230300Z 2306/2406 24004MPS 6000 NSC TX31/2306Z TN25/2322Z

Værobservasjoner og værvarsel for over 4000 flyplasser (METAR- og TAF-rapporter).

Tilgjengelige stasjoner er representert av de røde og gule prikkene på kartet.

Hold musepekeren over prikken for å se navnet på stasjonen.

Klikk så for å se værobservasjoner og -varsler.

For å forandre kartet kan du klikke på den grønne knappen med svart kryss for å zoome inn, på den grønne knappen med strek for å zoome ut, eller på de grønne pilene for å se tilstøtende kart.


METAR-TAF: